Time;durP1;ratioP1;P1;durP2;ratioP2;P2;SDS_P1;SDS_P2;PMS_P1;PMS_P2;Temp;Humidity;BMP_temperature;BMP_pressure;BME280_temperature;BME280_humidity;BME280_pressure;Samples;Min_cycle;Max_cycle;Signal;HPM_P1;HPM_P2
2022/07/23 00:00:10;;;;;;;16.90;10.75;;;;;;;;;;5120640;28;20028;-73
2022/07/23 00:02:35;;;;;;;17.83;11.73;;;;;;;;;;5121129;28;20031;-73
2022/07/23 00:05:01;;;;;;;18.05;11.88;;;;;;;;;;5114207;28;20027;-73
2022/07/23 00:07:26;;;;;;;17.17;11.38;;;;;;;;;;5120859;28;20020;-73
2022/07/23 00:09:51;;;;;;;16.20;11.50;;;;;;;;;;5120465;28;20207;-73
2022/07/23 00:12:17;;;;;;;21.60;12.80;;;;;;;;;;5120827;28;20042;-73
2022/07/23 00:14:42;;;;;;;15.82;11.73;;;;;;;;;;5120824;28;20030;-74
2022/07/23 00:17:07;;;;;;;19.77;11.98;;;;;;;;;;5120909;28;20051;-73
2022/07/23 00:19:33;;;;;;;16.48;11.27;;;;;;;;;;5120841;28;20015;-73
2022/07/23 00:21:58;;;;;;;20.75;12.45;;;;;;;;;;5120867;28;20011;-73
2022/07/23 00:24:24;;;;;;;18.23;12.15;;;;;;;;;;5120506;28;20106;-74
2022/07/23 00:26:52;;;;;;;18.13;12.32;;;;;;;;;;5120622;28;20215;-74
2022/07/23 00:29:17;;;;;;;18.80;13.15;;;;;;;;;;5120530;28;20024;-73
2022/07/23 00:31:43;;;;;;;18.77;12.82;;;;;;;;;;5120780;28;20035;-74
2022/07/23 00:34:08;;;;;;;20.92;11.88;;;;;;;;;;5120686;28;20088;-73
2022/07/23 00:36:33;;;;;;;18.70;11.65;;;;;;;;;;5120909;28;20316;-73
2022/07/23 00:38:59;;;;;;;16.90;11.60;;;;;;;;;;5123784;28;20227;-73
2022/07/23 00:41:24;;;;;;;19.67;12.10;;;;;;;;;;5124209;28;20082;-73
2022/07/23 00:43:50;;;;;;;18.80;12.43;;;;;;;;;;5124292;28;20069;-73
2022/07/23 00:46:21;;;;;;;22.15;12.75;;;;;;;;;;5124291;28;20038;-74
2022/07/23 00:48:47;;;;;;;23.23;13.45;;;;;;;;;;5124158;28;20062;-73
2022/07/23 00:51:14;;;;;;;22.52;14.10;;;;;;;;;;5124349;28;20036;-73
2022/07/23 00:53:40;;;;;;;20.75;13.98;;;;;;;;;;5123804;28;20028;-73
2022/07/23 00:56:05;;;;;;;27.58;17.77;;;;;;;;;;5124168;28;20339;-73
2022/07/23 00:58:32;;;;;;;31.02;18.98;;;;;;;;;;5123500;28;20056;-73
2022/07/23 01:00:58;;;;;;;32.20;19.75;;;;;;;;;;5124054;28;20028;-75
2022/07/23 01:03:23;;;;;;;33.25;21.05;;;;;;;;;;5123965;28;20193;-74
2022/07/23 01:05:48;;;;;;;33.70;20.65;;;;;;;;;;5116035;28;20027;-73
2022/07/23 01:08:14;;;;;;;34.90;20.95;;;;;;;;;;5117916;28;20312;-73
2022/07/23 01:10:40;;;;;;;36.00;22.48;;;;;;;;;;5123791;28;20031;-73
2022/07/23 01:13:08;;;;;;;32.90;21.30;;;;;;;;;;5123764;28;20023;-73
2022/07/23 01:15:35;;;;;;;35.35;21.77;;;;;;;;;;5123494;28;20027;-73
2022/07/23 01:18:01;;;;;;;31.95;21.38;;;;;;;;;;5123396;28;20019;-73
2022/07/23 01:20:27;;;;;;;32.85;20.52;;;;;;;;;;5123353;28;20071;-73
2022/07/23 01:22:53;;;;;;;32.50;20.40;;;;;;;;;;5123082;28;20350;-73
2022/07/23 01:25:19;;;;;;;34.47;21.02;;;;;;;;;;5123410;28;20211;-73
2022/07/23 01:27:44;;;;;;;31.85;20.20;;;;;;;;;;5123390;28;20023;-73
2022/07/23 01:30:11;;;;;;;30.42;20.00;;;;;;;;;;5123284;28;20431;-73
2022/07/23 01:32:36;;;;;;;33.75;21.83;;;;;;;;;;5123390;28;20119;-73
2022/07/23 01:35:02;;;;;;;33.53;20.05;;;;;;;;;;5122855;28;20082;-73
2022/07/23 01:37:27;;;;;;;34.75;20.20;;;;;;;;;;5123026;28;20019;-73
2022/07/23 01:39:52;;;;;;;32.97;20.85;;;;;;;;;;5122855;28;20028;-73
2022/07/23 01:42:18;;;;;;;29.30;19.17;;;;;;;;;;5123313;28;20031;-74
2022/07/23 01:44:43;;;;;;;31.80;19.55;;;;;;;;;;5123173;28;20473;-74
2022/07/23 01:47:09;;;;;;;31.58;20.33;;;;;;;;;;5122857;28;20032;-73
2022/07/23 01:49:34;;;;;;;31.73;19.98;;;;;;;;;;5122049;28;20051;-73
2022/07/23 01:51:59;;;;;;;32.95;19.70;;;;;;;;;;5122844;28;20031;-73
2022/07/23 01:54:30;;;;;;;31.45;20.10;;;;;;;;;;5122727;28;20365;-72
2022/07/23 01:56:56;;;;;;;34.72;19.92;;;;;;;;;;5122563;28;20019;-73
2022/07/23 01:59:22;;;;;;;33.95;20.15;;;;;;;;;;5122771;28;20046;-74
2022/07/23 02:01:47;;;;;;;28.63;18.35;;;;;;;;;;5122764;28;20261;-73
2022/07/23 02:04:13;;;;;;;30.30;19.02;;;;;;;;;;5121221;28;20053;-73
2022/07/23 02:06:38;;;;;;;27.85;18.30;;;;;;;;;;5110764;28;20031;-73
2022/07/23 02:09:04;;;;;;;27.90;18.88;;;;;;;;;;5104157;28;20016;-73
2022/07/23 02:11:29;;;;;;;30.52;18.73;;;;;;;;;;5117007;28;20035;-73
2022/07/23 02:13:54;;;;;;;28.85;17.90;;;;;;;;;;5122485;28;20023;-73
2022/07/23 02:16:19;;;;;;;28.50;18.60;;;;;;;;;;5120572;28;20136;-73
2022/07/23 02:18:46;;;;;;;32.63;18.70;;;;;;;;;;5122339;28;20031;-73
2022/07/23 02:21:12;;;;;;;25.85;17.20;;;;;;;;;;5122044;28;20143;-73
2022/07/23 02:23:37;;;;;;;25.67;17.73;;;;;;;;;;5121866;28;20039;-73
2022/07/23 02:26:03;;;;;;;27.58;18.27;;;;;;;;;;5122374;28;20020;-73
2022/07/23 02:28:28;;;;;;;27.65;18.02;;;;;;;;;;5121784;28;20027;-73
2022/07/23 02:30:53;;;;;;;25.25;17.20;;;;;;;;;;5122162;28;20034;-73
2022/07/23 02:33:19;;;;;;;24.90;16.35;;;;;;;;;;5121961;28;20023;-73
2022/07/23 02:35:44;;;;;;;25.05;16.15;;;;;;;;;;5121983;28;20103;-73
2022/07/23 02:38:09;;;;;;;24.70;16.08;;;;;;;;;;5121622;28;20370;-73
2022/07/23 02:40:35;;;;;;;27.25;16.27;;;;;;;;;;5121877;28;20028;-73
2022/07/23 02:43:00;;;;;;;26.67;16.42;;;;;;;;;;5121990;28;20049;-73
2022/07/23 02:45:25;;;;;;;25.67;16.00;;;;;;;;;;5121490;28;20015;-73
2022/07/23 02:47:51;;;;;;;24.75;16.40;;;;;;;;;;5122119;28;20042;-73
2022/07/23 02:50:16;;;;;;;23.08;15.40;;;;;;;;;;5121358;28;20241;-73
2022/07/23 02:52:42;;;;;;;26.27;15.02;;;;;;;;;;5121616;28;20027;-73
2022/07/23 02:55:07;;;;;;;22.95;15.45;;;;;;;;;;5121084;28;20019;-73
2022/07/23 02:57:33;;;;;;;25.80;15.10;;;;;;;;;;5116218;28;20043;-73
2022/07/23 02:59:58;;;;;;;24.25;15.13;;;;;;;;;;5121469;28;20047;-73
2022/07/23 03:02:24;;;;;;;24.30;15.65;;;;;;;;;;5121632;28;20038;-74
2022/07/23 03:04:50;;;;;;;25.33;15.60;;;;;;;;;;5115005;28;20039;-73
2022/07/23 03:07:16;;;;;;;23.10;14.80;;;;;;;;;;5115212;28;20055;-73
2022/07/23 03:09:41;;;;;;;24.13;15.27;;;;;;;;;;5121346;28;20016;-73
2022/07/23 03:12:07;;;;;;;24.23;15.55;;;;;;;;;;5121666;28;20027;-73
2022/07/23 03:14:32;;;;;;;26.50;15.32;;;;;;;;;;5121677;28;20043;-73
2022/07/23 03:16:59;;;;;;;22.98;14.95;;;;;;;;;;5121542;28;20034;-73
2022/07/23 03:19:25;;;;;;;28.15;16.42;;;;;;;;;;5121072;28;20031;-73
2022/07/23 03:21:50;;;;;;;24.48;15.73;;;;;;;;;;5121689;28;20055;-73
2022/07/23 03:24:17;;;;;;;23.92;15.80;;;;;;;;;;5094244;28;20027;-73
2022/07/23 03:26:43;;;;;;;24.33;15.32;;;;;;;;;;5121271;28;20050;-73
2022/07/23 03:29:08;;;;;;;24.48;15.48;;;;;;;;;;5121381;28;20070;-73
2022/07/23 03:31:34;;;;;;;23.52;14.75;;;;;;;;;;5118200;28;20269;-73
2022/07/23 03:33:59;;;;;;;28.02;15.70;;;;;;;;;;5117793;28;20103;-73
2022/07/23 03:36:25;;;;;;;26.60;16.30;;;;;;;;;;5120887;28;20096;-74
2022/07/23 03:38:51;;;;;;;26.33;15.93;;;;;;;;;;5121132;28;20015;-73
2022/07/23 03:41:17;;;;;;;27.33;16.70;;;;;;;;;;5121234;28;20174;-73
2022/07/23 03:43:42;;;;;;;29.50;16.45;;;;;;;;;;5121053;28;20039;-73
2022/07/23 03:46:08;;;;;;;27.30;16.50;;;;;;;;;;5121283;28;20023;-73
2022/07/23 03:48:33;;;;;;;26.02;16.48;;;;;;;;;;5120427;28;20268;-73
2022/07/23 03:50:58;;;;;;;26.85;16.65;;;;;;;;;;5121249;28;20038;-73
2022/07/23 03:53:24;;;;;;;28.92;18.05;;;;;;;;;;5120857;28;20042;-73
2022/07/23 03:55:52;;;;;;;29.90;17.92;;;;;;;;;;5114888;28;20474;-73
2022/07/23 03:58:18;;;;;;;28.90;18.02;;;;;;;;;;5107996;28;20086;-73
2022/07/23 04:00:43;;;;;;;22.90;16.45;;;;;;;;;;5119263;28;20027;-73
2022/07/23 04:03:08;;;;;;;28.95;18.02;;;;;;;;;;5121529;28;20142;-73
2022/07/23 04:05:34;;;;;;;28.02;16.75;;;;;;;;;;5114312;28;20064;-73
2022/07/23 04:07:59;;;;;;;33.45;18.95;;;;;;;;;;5120620;28;20012;-73
2022/07/23 04:10:25;;;;;;;29.27;17.90;;;;;;;;;;5120614;28;20220;-73
2022/07/23 04:12:50;;;;;;;33.42;19.27;;;;;;;;;;5122739;28;20058;-74
2022/07/23 04:15:15;;;;;;;30.42;19.48;;;;;;;;;;5124739;28;20187;-73
2022/07/23 04:17:41;;;;;;;31.52;19.35;;;;;;;;;;5124764;28;20016;-74
2022/07/23 04:20:06;;;;;;;30.08;18.75;;;;;;;;;;5124666;28;20323;-74
2022/07/23 04:22:32;;;;;;;31.65;19.60;;;;;;;;;;5124623;28;20195;-72
2022/07/23 04:24:57;;;;;;;31.67;18.85;;;;;;;;;;5124795;28;20027;-73
2022/07/23 04:27:22;;;;;;;35.67;20.13;;;;;;;;;;5124549;28;20096;-73
2022/07/23 04:29:48;;;;;;;35.80;20.10;;;;;;;;;;5124216;28;20049;-73
2022/07/23 04:32:13;;;;;;;34.47;19.92;;;;;;;;;;5118046;28;20020;-73
2022/07/23 04:34:39;;;;;;;30.80;18.88;;;;;;;;;;5124691;28;20023;-73
2022/07/23 04:37:04;;;;;;;31.63;19.73;;;;;;;;;;5124627;28;20023;-73
2022/07/23 04:39:29;;;;;;;34.05;20.30;;;;;;;;;;5124212;28;20024;-74
2022/07/23 04:41:55;;;;;;;34.53;20.33;;;;;;;;;;5124289;28;20034;-74
2022/07/23 04:44:20;;;;;;;28.38;18.30;;;;;;;;;;5124497;28;20039;-74
2022/07/23 04:46:45;;;;;;;34.17;19.75;;;;;;;;;;5124097;28;20364;-73
2022/07/23 04:49:11;;;;;;;34.08;20.10;;;;;;;;;;5123809;28;20050;-73
2022/07/23 04:51:36;;;;;;;30.27;19.50;;;;;;;;;;5124124;28;20066;-73
2022/07/23 04:54:02;;;;;;;34.75;20.08;;;;;;;;;;5123830;28;20027;-73
2022/07/23 04:56:27;;;;;;;31.10;19.80;;;;;;;;;;5124137;28;20027;-74
2022/07/23 04:58:52;;;;;;;33.30;19.85;;;;;;;;;;5117192;28;20012;-74
2022/07/23 05:01:18;;;;;;;33.95;19.08;;;;;;;;;;5123692;28;20087;-73
2022/07/23 05:03:43;;;;;;;31.35;18.70;;;;;;;;;;5123704;28;20027;-74
2022/07/23 05:06:09;;;;;;;29.80;18.13;;;;;;;;;;5117101;28;20251;-73
2022/07/23 05:08:34;;;;;;;32.85;19.23;;;;;;;;;;5117172;28;20051;-73
2022/07/23 05:10:59;;;;;;;27.70;18.35;;;;;;;;;;5123904;28;20178;-73
2022/07/23 05:13:25;;;;;;;27.30;18.05;;;;;;;;;;5123809;28;20368;-73
2022/07/23 05:15:50;;;;;;;30.20;17.50;;;;;;;;;;5123573;28;20045;-73
2022/07/23 05:18:15;;;;;;;26.10;17.35;;;;;;;;;;5123486;28;20031;-73
2022/07/23 05:20:41;;;;;;;32.65;18.25;;;;;;;;;;5123395;28;20068;-73
2022/07/23 05:23:06;;;;;;;29.83;17.98;;;;;;;;;;5122908;28;20144;-73
2022/07/23 05:25:32;;;;;;;30.55;16.95;;;;;;;;;;5122409;28;20028;-73
2022/07/23 05:27:57;;;;;;;30.13;17.23;;;;;;;;;;5123515;28;20020;-73
2022/07/23 05:30:23;;;;;;;29.13;17.60;;;;;;;;;;5123384;28;20050;-73
2022/07/23 05:32:48;;;;;;;29.30;17.08;;;;;;;;;;5116654;28;20019;-74
2022/07/23 05:35:14;;;;;;;31.52;16.67;;;;;;;;;;5123051;28;20020;-73
2022/07/23 05:37:39;;;;;;;26.35;16.40;;;;;;;;;;5123043;28;20211;-73
2022/07/23 05:40:07;;;;;;;31.25;15.20;;;;;;;;;;5123091;28;20156;-73
2022/07/23 05:42:37;;;;;;;27.95;14.18;;;;;;;;;;5123231;28;20086;-73
2022/07/23 05:45:04;;;;;;;22.00;12.75;;;;;;;;;;5122814;28;20046;-73
2022/07/23 05:47:48;;;;;;;24.17;13.45;;;;;;;;;;5123184;28;20342;-73
2022/07/23 05:50:15;;;;;;;21.13;12.88;;;;;;;;;;5119812;28;20359;-73
2022/07/23 05:52:40;;;;;;;26.17;13.13;;;;;;;;;;5115068;28;20234;-73
2022/07/23 05:55:07;;;;;;;23.77;13.18;;;;;;;;;;5122660;28;20115;-73
2022/07/23 05:57:32;;;;;;;28.23;13.35;;;;;;;;;;5116238;28;20185;-74
2022/07/23 05:59:57;;;;;;;24.48;12.60;;;;;;;;;;5122792;28;20116;-73
2022/07/23 06:02:23;;;;;;;19.05;12.13;;;;;;;;;;5122767;28;20035;-73
2022/07/23 06:04:48;;;;;;;21.65;12.45;;;;;;;;;;5116876;28;20024;-74
2022/07/23 06:07:14;;;;;;;24.23;12.52;;;;;;;;;;5121922;28;20439;-73
2022/07/23 06:09:39;;;;;;;23.35;12.75;;;;;;;;;;5115736;28;20095;-74
2022/07/23 06:12:05;;;;;;;20.90;12.43;;;;;;;;;;5122481;28;20024;-73
2022/07/23 06:14:30;;;;;;;23.10;13.38;;;;;;;;;;5103734;28;20031;-73
2022/07/23 06:16:55;;;;;;;21.88;12.77;;;;;;;;;;5122635;28;20022;-73
2022/07/23 06:19:21;;;;;;;23.13;13.40;;;;;;;;;;5122161;28;20065;-73
2022/07/23 06:21:46;;;;;;;22.95;13.00;;;;;;;;;;5122344;28;20272;-73
2022/07/23 06:24:12;;;;;;;25.20;13.05;;;;;;;;;;5121892;28;20315;-73
2022/07/23 06:26:37;;;;;;;23.27;13.38;;;;;;;;;;5121982;28;20065;-73
2022/07/23 06:29:02;;;;;;;29.45;15.00;;;;;;;;;;5122092;28;20046;-74
2022/07/23 06:31:28;;;;;;;26.23;15.88;;;;;;;;;;5122115;28;20096;-73
2022/07/23 06:33:54;;;;;;;31.65;15.93;;;;;;;;;;5121874;28;20034;-73
2022/07/23 06:36:19;;;;;;;29.42;15.85;;;;;;;;;;5121868;28;20024;-73
2022/07/23 06:38:45;;;;;;;24.65;16.00;;;;;;;;;;5121856;28;20060;-73
2022/07/23 06:41:10;;;;;;;28.15;15.98;;;;;;;;;;5122085;28;20039;-73
2022/07/23 06:43:35;;;;;;;27.52;16.17;;;;;;;;;;5121602;28;20039;-73
2022/07/23 06:46:01;;;;;;;24.92;15.40;;;;;;;;;;5121870;28;20357;-73
2022/07/23 06:48:26;;;;;;;28.17;15.15;;;;;;;;;;5121581;28;20157;-73
2022/07/23 06:50:52;;;;;;;28.50;15.43;;;;;;;;;;5121860;28;20173;-75
2022/07/23 06:53:18;;;;;;;28.17;16.55;;;;;;;;;;5121542;28;20247;-73
2022/07/23 06:55:43;;;;;;;27.75;16.45;;;;;;;;;;5114435;28;20023;-73
2022/07/23 06:58:09;;;;;;;31.67;16.23;;;;;;;;;;5115220;28;20086;-73
2022/07/23 07:00:35;;;;;;;29.95;16.58;;;;;;;;;;5121673;28;20026;-73
2022/07/23 07:03:01;;;;;;;29.08;16.60;;;;;;;;;;5121581;28;20061;-73
2022/07/23 07:05:27;;;;;;;29.75;16.75;;;;;;;;;;5114985;28;20017;-73
2022/07/23 07:07:54;;;;;;;30.30;16.85;;;;;;;;;;5117934;28;20277;-73
2022/07/23 07:10:21;;;;;;;32.22;17.60;;;;;;;;;;5118904;28;20039;-73
2022/07/23 07:12:46;;;;;;;32.35;16.85;;;;;;;;;;5121575;28;20024;-73
2022/07/23 07:15:11;;;;;;;30.98;17.00;;;;;;;;;;5121322;28;20065;-73
2022/07/23 07:17:37;;;;;;;32.08;16.92;;;;;;;;;;5121265;28;20027;-73
2022/07/23 07:20:04;;;;;;;35.30;17.42;;;;;;;;;;5121684;28;20054;-73
2022/07/23 07:22:29;;;;;;;32.38;17.42;;;;;;;;;;5114436;28;20039;-74
2022/07/23 07:24:54;;;;;;;31.77;17.83;;;;;;;;;;5120884;28;20019;-73
2022/07/23 07:27:20;;;;;;;30.40;17.08;;;;;;;;;;5121295;28;20023;-73
2022/07/23 07:29:45;;;;;;;30.50;16.67;;;;;;;;;;5121148;28;20034;-73
2022/07/23 07:32:11;;;;;;;38.72;17.50;;;;;;;;;;5121232;28;20024;-73
2022/07/23 07:34:36;;;;;;;33.50;17.10;;;;;;;;;;5114530;28;20324;-73
2022/07/23 07:37:01;;;;;;;36.78;17.42;;;;;;;;;;5121155;28;20050;-73
2022/07/23 07:39:27;;;;;;;35.22;18.65;;;;;;;;;;5120712;28;20088;-73
2022/07/23 07:41:52;;;;;;;36.65;17.45;;;;;;;;;;5119074;28;20030;-73
2022/07/23 07:44:17;;;;;;;38.42;18.15;;;;;;;;;;5120822;28;20052;-74
2022/07/23 07:46:43;;;;;;;43.55;18.35;;;;;;;;;;5120873;28;20027;-73
2022/07/23 07:49:08;;;;;;;39.78;18.52;;;;;;;;;;5125132;28;20037;-73
2022/07/23 07:51:34;;;;;;;39.08;19.08;;;;;;;;;;5116835;28;20151;-73
2022/07/23 07:53:59;;;;;;;41.75;18.23;;;;;;;;;;5124849;28;20023;-73
2022/07/23 07:56:24;;;;;;;37.75;18.02;;;;;;;;;;5125094;28;20027;-73
2022/07/23 07:58:50;;;;;;;44.55;18.90;;;;;;;;;;5096154;28;20020;-73
2022/07/23 08:01:15;;;;;;;37.03;17.33;;;;;;;;;;5115836;28;20030;-75
2022/07/23 08:03:41;;;;;;;39.83;17.80;;;;;;;;;;5124846;28;20023;-73
2022/07/23 08:06:06;;;;;;;49.33;18.98;;;;;;;;;;5100053;28;20137;-75
2022/07/23 08:08:31;;;;;;;36.70;18.38;;;;;;;;;;5124707;28;20019;-73
2022/07/23 08:10:57;;;;;;;41.72;17.38;;;;;;;;;;5124515;28;20054;-73
2022/07/23 08:13:22;;;;;;;37.85;17.85;;;;;;;;;;5124779;28;20036;-74
2022/07/23 08:15:48;;;;;;;32.67;16.65;;;;;;;;;;5124771;28;20165;-73
2022/07/23 08:18:14;;;;;;;36.05;17.45;;;;;;;;;;5124952;28;20020;-73
2022/07/23 08:20:39;;;;;;;34.38;16.63;;;;;;;;;;5124478;28;20328;-73
2022/07/23 08:23:07;;;;;;;32.65;16.65;;;;;;;;;;5124471;28;20043;-73
2022/07/23 08:25:42;;;;;;;33.45;17.08;;;;;;;;;;5124367;28;20031;-73
2022/07/23 08:28:09;;;;;;;;;;;;;;;;;;5124864;28;20032;-74
2022/07/23 08:30:36;;;;;;;29.17;15.77;;;;;;;;;;5124643;28;19907;-74
2022/07/23 08:33:01;;;;;;;31.30;16.70;;;;;;;;;;5124473;28;20023;-74
2022/07/23 08:35:32;;;;;;;33.45;15.93;;;;;;;;;;5124351;28;20062;-73
2022/07/23 08:37:58;;;;;;;31.15;16.27;;;;;;;;;;5124462;28;20030;-74
2022/07/23 08:40:29;;;;;;;31.10;16.08;;;;;;;;;;5105514;28;20229;-74
2022/07/23 08:42:54;;;;;;;34.38;16.30;;;;;;;;;;5124176;28;20087;-73
2022/07/23 08:45:22;;;;;;;29.83;16.02;;;;;;;;;;5123956;28;20019;-73
2022/07/23 08:47:53;;;;;;;32.20;16.25;;;;;;;;;;5124048;28;20024;-74
2022/07/23 08:50:20;;;;;;;32.13;16.00;;;;;;;;;;5123309;28;20228;-73
2022/07/23 08:52:47;;;;;;;28.55;15.75;;;;;;;;;;5123949;28;20224;-74
2022/07/23 08:55:13;;;;;;;26.45;14.85;;;;;;;;;;5123637;28;20047;-73
2022/07/23 08:57:39;;;;;;;28.77;15.77;;;;;;;;;;5123920;28;20315;-73
2022/07/23 09:00:06;;;;;;;28.58;15.35;;;;;;;;;;5116931;28;20093;-73
2022/07/23 09:02:38;;;;;;;27.40;15.48;;;;;;;;;;5111143;28;20208;-73
2022/07/23 09:05:04;;;;;;;27.92;16.00;;;;;;;;;;5117056;28;20051;-73
2022/07/23 09:07:30;;;;;;;34.03;16.20;;;;;;;;;;5123584;28;20041;-73
2022/07/23 09:10:13;;;;;;;29.58;15.70;;;;;;;;;;5123308;28;20026;-74
2022/07/23 09:12:39;;;;;;;30.42;17.15;;;;;;;;;;5123658;28;20030;-73
2022/07/23 09:15:08;;;;;;;35.70;16.95;;;;;;;;;;5123615;28;20068;-73
2022/07/23 09:17:42;;;;;;;31.52;16.23;;;;;;;;;;5123766;28;20024;-74
2022/07/23 09:20:13;;;;;;;31.55;16.88;;;;;;;;;;5113446;28;20039;-73
2022/07/23 09:22:44;;;;;;;29.38;15.90;;;;;;;;;;5123591;28;20024;-73
2022/07/23 09:25:11;;;;;;;33.95;16.60;;;;;;;;;;5114362;28;20026;-73
2022/07/23 09:27:47;;;;;;;31.95;16.08;;;;;;;;;;5123354;28;20083;-73
2022/07/23 09:30:13;;;;;;;31.05;15.40;;;;;;;;;;5123121;28;20212;-73
2022/07/23 09:32:39;;;;;;;34.20;16.02;;;;;;;;;;5123499;28;20076;-73
2022/07/23 09:35:05;;;;;;;34.33;16.10;;;;;;;;;;5123063;28;20323;-73
2022/07/23 09:37:30;;;;;;;31.27;16.20;;;;;;;;;;5116471;28;20057;-73
2022/07/23 09:40:05;;;;;;;30.33;15.68;;;;;;;;;;5122738;28;20054;-74
2022/07/23 09:42:30;;;;;;;30.02;15.18;;;;;;;;;;5105015;28;20034;-73
2022/07/23 09:44:58;;;;;;;27.40;14.02;;;;;;;;;;5123017;28;20095;-73
2022/07/23 09:47:27;;;;;;;27.50;14.55;;;;;;;;;;5123170;28;20365;-73
2022/07/23 09:49:59;;;;;;;28.38;14.35;;;;;;;;;;5122695;28;20054;-73
2022/07/23 09:52:33;;;;;;;26.45;13.75;;;;;;;;;;5115071;28;20024;-74
2022/07/23 09:55:01;;;;;;;25.88;13.90;;;;;;;;;;5122613;28;20320;-73
2022/07/23 09:57:27;;;;;;;31.92;15.00;;;;;;;;;;5115670;28;20024;-73
2022/07/23 09:59:52;;;;;;;30.33;14.30;;;;;;;;;;5122374;28;20066;-75
2022/07/23 10:02:19;;;;;;;25.95;14.15;;;;;;;;;;5104360;28;20027;-73
2022/07/23 10:04:45;;;;;;;27.08;13.65;;;;;;;;;;5117785;28;20031;-73
2022/07/23 10:07:12;;;;;;;25.40;14.52;;;;;;;;;;5121452;28;20034;-73
2022/07/23 10:09:39;;;;;;;26.58;14.50;;;;;;;;;;5117270;28;20031;-73
2022/07/23 10:14:39;;;;;;;25.25;15.07;;;;;;;;;;5122445;28;20019;-73
2022/07/23 10:17:05;;;;;;;26.60;14.15;;;;;;;;;;5122419;28;20054;-73
2022/07/23 10:19:32;;;;;;;26.75;14.77;;;;;;;;;;5122136;28;20257;-74
2022/07/23 10:22:01;;;;;;;27.70;14.65;;;;;;;;;;5122198;28;20027;-74
2022/07/23 10:24:50;;;;;;;25.85;14.40;;;;;;;;;;5094214;28;20264;-73
2022/07/23 10:27:34;;;;;;;23.90;14.63;;;;;;;;;;5112000;28;20311;-73
2022/07/23 10:30:07;;;;;;;28.98;13.45;;;;;;;;;;5121989;28;20224;-73
2022/07/23 10:33:11;;;;;;;24.52;13.88;;;;;;;;;;5122291;28;20023;-73
2022/07/23 10:35:37;;;;;;;29.60;14.85;;;;;;;;;;5104229;28;20168;-73
2022/07/23 10:38:16;;;;;;;23.02;13.38;;;;;;;;;;5122582;28;20032;-73
2022/07/23 10:41:02;;;;;;;23.27;12.75;;;;;;;;;;5122156;28;20039;-73
2022/07/23 10:43:29;;;;;;;20.73;12.57;;;;;;;;;;5122185;28;20060;-73
2022/07/23 10:45:55;;;;;;;19.30;13.07;;;;;;;;;;5103624;28;20296;-73
2022/07/23 10:48:22;;;;;;;21.58;12.43;;;;;;;;;;5121715;28;20056;-73
2022/07/23 10:51:15;;;;;;;22.35;12.90;;;;;;;;;;5121796;28;20015;-73
2022/07/23 10:53:49;;;;;;;21.88;12.70;;;;;;;;;;5112149;28;20039;-73
2022/07/23 10:56:14;;;;;;;23.93;13.50;;;;;;;;;;5121969;28;20028;-73
2022/07/23 10:58:48;;;;;;;24.17;14.80;;;;;;;;;;5119518;28;20325;-73
2022/07/23 11:01:39;;;;;;;23.35;12.98;;;;;;;;;;5118859;28;20072;-73
2022/07/23 11:04:07;;;;;;;21.58;12.32;;;;;;;;;;5121438;28;20023;-73
2022/07/23 11:06:48;;;;;;;22.73;12.50;;;;;;;;;;5114889;28;20147;-74
2022/07/23 11:09:30;;;;;;;22.60;12.70;;;;;;;;;;5116363;28;20324;-73
2022/07/23 11:12:13;;;;;;;21.98;12.35;;;;;;;;;;5122003;28;20027;-74
2022/07/23 11:14:57;;;;;;;18.38;11.82;;;;;;;;;;5121555;28;20028;-74
2022/07/23 11:17:24;;;;;;;19.75;11.45;;;;;;;;;;5113971;28;20220;-73
2022/07/23 11:20:08;;;;;;;19.48;11.45;;;;;;;;;;5121266;28;20046;-73
2022/07/23 11:22:37;;;;;;;16.88;11.40;;;;;;;;;;5120382;28;20047;-73
2022/07/23 11:25:03;;;;;;;19.52;11.25;;;;;;;;;;5120986;28;20039;-73
2022/07/23 11:27:41;;;;;;;17.98;11.80;;;;;;;;;;5121413;28;20028;-73
2022/07/23 11:30:09;;;;;;;21.15;11.05;;;;;;;;;;5121148;28;20008;-73
2022/07/23 11:32:38;;;;;;;20.98;12.00;;;;;;;;;;5121242;28;20019;-73
2022/07/23 11:35:21;;;;;;;19.58;11.70;;;;;;;;;;5096096;28;20239;-73
2022/07/23 11:37:47;;;;;;;22.02;12.38;;;;;;;;;;5121252;28;20023;-75
2022/07/23 11:40:16;;;;;;;23.23;12.55;;;;;;;;;;5120955;28;20061;-73
2022/07/23 11:42:59;;;;;;;19.77;12.20;;;;;;;;;;5121123;28;20019;-74
2022/07/23 11:45:30;;;;;;;21.08;11.70;;;;;;;;;;5120322;28;20223;-74
2022/07/23 11:47:56;;;;;;;21.27;12.82;;;;;;;;;;5120983;28;20367;-73
2022/07/23 11:50:24;;;;;;;17.55;11.32;;;;;;;;;;5120978;28;20027;-73
2022/07/23 11:52:49;;;;;;;18.98;11.73;;;;;;;;;;5121533;28;20292;-73
2022/07/23 11:55:16;;;;;;;16.77;11.00;;;;;;;;;;5120838;28;20027;-73
2022/07/23 11:57:44;;;;;;;17.90;11.43;;;;;;;;;;5120873;28;20028;-73
2022/07/23 12:00:14;;;;;;;15.20;10.85;;;;;;;;;;5120245;28;20062;-73
2022/07/23 12:02:41;;;;;;;18.60;11.13;;;;;;;;;;5115635;28;20019;-73
2022/07/23 12:05:09;;;;;;;21.10;12.32;;;;;;;;;;5114366;28;20081;-74
2022/07/23 12:07:39;;;;;;;23.25;16.73;;;;;;;;;;5121046;28;20024;-73
2022/07/23 12:10:24;;;;;;;20.55;12.13;;;;;;;;;;5120254;28;20076;-72
2022/07/23 12:12:58;;;;;;;17.70;11.40;;;;;;;;;;5114432;28;20019;-73
2022/07/23 12:15:38;;;;;;;17.40;11.40;;;;;;;;;;5120908;28;20031;-73
2022/07/23 12:18:05;;;;;;;20.55;11.82;;;;;;;;;;5120679;28;20024;-73
2022/07/23 12:20:33;;;;;;;21.77;11.55;;;;;;;;;;5120618;28;20030;-74
2022/07/23 12:23:02;;;;;;;18.48;10.65;;;;;;;;;;5120794;28;20024;-74
2022/07/23 12:25:31;;;;;;;18.48;10.95;;;;;;;;;;5120439;28;20375;-73
2022/07/23 12:28:08;;;;;;;16.75;10.75;;;;;;;;;;5120815;28;20023;-74
2022/07/23 12:30:46;;;;;;;21.00;10.75;;;;;;;;;;5110070;28;20019;-74
2022/07/23 12:33:36;;;;;;;18.45;11.27;;;;;;;;;;5121340;28;20069;-73
2022/07/23 12:36:05;;;;;;;16.05;10.57;;;;;;;;;;5098796;28;20059;-75
2022/07/23 12:38:47;;;;;;;17.80;10.35;;;;;;;;;;5124281;28;20086;-73
2022/07/23 12:41:12;;;;;;;16.90;10.35;;;;;;;;;;5117082;28;20026;-73
2022/07/23 12:43:44;;;;;;;15.43;9.50;;;;;;;;;;5124112;28;20031;-73
2022/07/23 12:46:10;;;;;;;15.93;9.80;;;;;;;;;;5115776;28;20024;-73
2022/07/23 12:48:51;;;;;;;17.25;9.60;;;;;;;;;;5124177;28;20038;-73
2022/07/23 12:51:30;;;;;;;15.25;9.55;;;;;;;;;;5124671;28;20062;-73
2022/07/23 12:53:55;;;;;;;14.30;9.32;;;;;;;;;;5123802;28;20238;-73
2022/07/23 12:56:29;;;;;;;17.13;9.65;;;;;;;;;;5124221;28;20449;-73
2022/07/23 12:59:05;;;;;;;15.65;9.73;;;;;;;;;;5124084;28;20035;-73
2022/07/23 13:01:36;;;;;;;16.00;9.32;;;;;;;;;;5099489;28;20311;-73
2022/07/23 13:04:21;;;;;;;14.75;9.20;;;;;;;;;;5124211;28;20019;-73
2022/07/23 13:06:51;;;;;;;14.77;8.45;;;;;;;;;;5112956;28;20099;-77
2022/07/23 13:09:19;;;;;;;13.45;9.48;;;;;;;;;;5123276;28;20308;-74
2022/07/23 13:11:46;;;;;;;12.93;8.35;;;;;;;;;;5117166;28;20035;-73
2022/07/23 13:14:13;;;;;;;16.83;8.80;;;;;;;;;;5123347;28;20031;-73
2022/07/23 13:16:39;;;;;;;11.77;8.15;;;;;;;;;;5123547;28;20011;-73
2022/07/23 13:19:06;;;;;;;12.68;8.15;;;;;;;;;;5123736;28;20030;-73
2022/07/23 13:21:31;;;;;;;12.77;8.43;;;;;;;;;;5123583;28;20016;-73
2022/07/23 13:23:57;;;;;;;12.25;8.32;;;;;;;;;;5123334;28;20211;-73
2022/07/23 13:26:22;;;;;;;11.68;7.68;;;;;;;;;;5119810;28;20020;-74
2022/07/23 13:28:48;;;;;;;11.52;7.70;;;;;;;;;;5123475;28;20047;-73
2022/07/23 13:31:14;;;;;;;12.55;8.20;;;;;;;;;;5123371;28;20184;-73
2022/07/23 13:33:39;;;;;;;11.90;8.23;;;;;;;;;;5123464;28;20015;-73
2022/07/23 13:36:05;;;;;;;12.05;7.80;;;;;;;;;;5123484;28;20289;-73
2022/07/23 13:38:31;;;;;;;13.57;8.15;;;;;;;;;;5123078;28;20091;-73
2022/07/23 13:40:56;;;;;;;12.40;8.68;;;;;;;;;;5123174;28;20027;-73
2022/07/23 13:43:23;;;;;;;10.73;8.23;;;;;;;;;;5123247;28;20012;-73
2022/07/23 13:45:50;;;;;;;16.10;8.27;;;;;;;;;;5103500;28;20008;-73
2022/07/23 13:48:16;;;;;;;12.70;8.00;;;;;;;;;;5122950;28;20027;-75
2022/07/23 13:50:42;;;;;;;12.95;7.85;;;;;;;;;;5119284;28;20207;-73
2022/07/23 13:53:14;;;;;;;12.98;8.27;;;;;;;;;;5123070;28;20020;-73
2022/07/23 13:55:40;;;;;;;13.15;8.57;;;;;;;;;;5122541;28;20080;-74
2022/07/23 13:58:07;;;;;;;12.65;8.40;;;;;;;;;;5122806;28;20038;-74
2022/07/23 14:00:34;;;;;;;15.60;7.97;;;;;;;;;;5119081;28;20023;-73
2022/07/23 14:03:01;;;;;;;11.07;7.93;;;;;;;;;;5119876;28;20027;-74
2022/07/23 14:05:27;;;;;;;10.52;7.95;;;;;;;;;;5115668;28;20027;-73
2022/07/23 14:07:52;;;;;;;11.45;7.88;;;;;;;;;;5122636;28;20032;-73
2022/07/23 14:10:20;;;;;;;13.70;7.95;;;;;;;;;;5122501;28;20039;-74
2022/07/23 14:12:46;;;;;;;14.45;8.32;;;;;;;;;;5115893;28;20378;-73
2022/07/23 14:15:13;;;;;;;10.70;8.00;;;;;;;;;;5122463;28;20035;-73
2022/07/23 14:17:40;;;;;;;11.20;7.60;;;;;;;;;;5122132;28;20054;-73
2022/07/23 14:20:06;;;;;;;68.78;13.25;;;;;;;;;;5122187;28;20020;-73
2022/07/23 14:22:32;;;;;;;12.85;8.23;;;;;;;;;;5122773;28;20092;-73